Quata, Brazil
Current Conditions -  °F | °C
As of 8:00 PM on Sunday 23 Nov 2014 (Local Time) from SBDN Reporting Station
Scattered Clouds Scattered Clouds  
Wind Chill: 77°   Ceiling: Unl
Heat Index: 79°   Visibility: 6mi
Dew Point: 70°   Wind: 5mph
Humidity: 78%   Direction: 70°ENE
Pressure: 29.85"   Gusts: NA
Location:  22.25°S, 50.7°W
Report Text: SBDN 232200Z 07004KT 9999 SCT045 25/21 Q1011
Loading
Personal Weather Stations






























Interactive Weather Map New forecast layout! Learn more

10-Day Weather Forecast

Advertisements
Track Severe Weather on mobile